sensor_id;sensor_type;location;lat;lon;timestamp;P1;durP1;ratioP1;P2;durP2;ratioP2
79064;SDS011;68469;51.502;7.462;2023-08-17T00:01:26;6.22;;;3.70;;
79064;SDS011;68469;51.502;7.462;2023-08-17T00:03:51;8.60;;;4.50;;
79064;SDS011;68469;51.502;7.462;2023-08-17T00:06:17;6.03;;;4.22;;
79064;SDS011;68469;51.502;7.462;2023-08-17T00:08:43;6.70;;;5.05;;
79064;SDS011;68469;51.502;7.462;2023-08-17T00:11:09;12.15;;;5.00;;
79064;SDS011;68469;51.502;7.462;2023-08-17T00:13:34;14.23;;;5.97;;
79064;SDS011;68469;51.502;7.462;2023-08-17T00:16:01;14.55;;;6.40;;
79064;SDS011;68469;51.502;7.462;2023-08-17T00:18:26;14.20;;;7.13;;
79064;SDS011;68469;51.502;7.462;2023-08-17T00:20:52;14.38;;;7.88;;
79064;SDS011;68469;51.502;7.462;2023-08-17T00:23:18;26.73;;;8.60;;
79064;SDS011;68469;51.502;7.462;2023-08-17T00:25:45;13.68;;;6.88;;
79064;SDS011;68469;51.502;7.462;2023-08-17T00:28:12;20.83;;;7.13;;
79064;SDS011;68469;51.502;7.462;2023-08-17T00:30:38;32.13;;;7.60;;
79064;SDS011;68469;51.502;7.462;2023-08-17T00:33:04;18.48;;;8.02;;
79064;SDS011;68469;51.502;7.462;2023-08-17T00:35:30;13.10;;;6.57;;
79064;SDS011;68469;51.502;7.462;2023-08-17T00:37:57;72.57;;;10.43;;
79064;SDS011;68469;51.502;7.462;2023-08-17T00:40:23;31.98;;;8.57;;
79064;SDS011;68469;51.502;7.462;2023-08-17T00:42:49;31.85;;;7.10;;
79064;SDS011;68469;51.502;7.462;2023-08-17T00:45:14;44.78;;;7.78;;
79064;SDS011;68469;51.502;7.462;2023-08-17T00:47:40;45.00;;;7.35;;
79064;SDS011;68469;51.502;7.462;2023-08-17T00:50:07;39.17;;;7.50;;
79064;SDS011;68469;51.502;7.462;2023-08-17T00:52:33;21.63;;;5.82;;
79064;SDS011;68469;51.502;7.462;2023-08-17T00:54:59;74.20;;;9.27;;
79064;SDS011;68469;51.502;7.462;2023-08-17T00:57:26;50.72;;;7.85;;
79064;SDS011;68469;51.502;7.462;2023-08-17T00:59:52;35.80;;;7.32;;
79064;SDS011;68469;51.502;7.462;2023-08-17T01:02:18;34.58;;;7.57;;
79064;SDS011;68469;51.502;7.462;2023-08-17T01:04:44;19.60;;;5.25;;
79064;SDS011;68469;51.502;7.462;2023-08-17T01:07:10;11.55;;;4.50;;
79064;SDS011;68469;51.502;7.462;2023-08-17T01:09:36;24.23;;;4.97;;
79064;SDS011;68469;51.502;7.462;2023-08-17T01:12:11;15.80;;;4.93;;
79064;SDS011;68469;51.502;7.462;2023-08-17T01:17:24;13.07;;;4.63;;
79064;SDS011;68469;51.502;7.462;2023-08-17T01:19:56;10.60;;;5.53;;
79064;SDS011;68469;51.502;7.462;2023-08-17T01:22:23;8.82;;;5.30;;
79064;SDS011;68469;51.502;7.462;2023-08-17T01:24:54;11.65;;;6.22;;
79064;SDS011;68469;51.502;7.462;2023-08-17T01:27:22;15.35;;;6.25;;
79064;SDS011;68469;51.502;7.462;2023-08-17T01:29:49;7.65;;;5.32;;
79064;SDS011;68469;51.502;7.462;2023-08-17T01:32:16;7.25;;;5.65;;
79064;SDS011;68469;51.502;7.462;2023-08-17T01:34:54;10.43;;;7.25;;
79064;SDS011;68469;51.502;7.462;2023-08-17T01:37:24;14.00;;;8.60;;
79064;SDS011;68469;51.502;7.462;2023-08-17T01:39:56;12.35;;;8.38;;
79064;SDS011;68469;51.502;7.462;2023-08-17T01:42:24;13.48;;;9.52;;
79064;SDS011;68469;51.502;7.462;2023-08-17T01:44:50;15.25;;;9.50;;
79064;SDS011;68469;51.502;7.462;2023-08-17T01:47:20;18.48;;;11.25;;
79064;SDS011;68469;51.502;7.462;2023-08-17T01:49:46;19.52;;;11.63;;
79064;SDS011;68469;51.502;7.462;2023-08-17T01:52:12;22.88;;;10.57;;
79064;SDS011;68469;51.502;7.462;2023-08-17T01:54:37;21.17;;;12.57;;
79064;SDS011;68469;51.502;7.462;2023-08-17T01:57:03;22.83;;;11.95;;
79064;SDS011;68469;51.502;7.462;2023-08-17T01:59:29;24.05;;;13.13;;
79064;SDS011;68469;51.502;7.462;2023-08-17T02:01:54;22.52;;;13.27;;
79064;SDS011;68469;51.502;7.462;2023-08-17T02:04:20;22.75;;;14.10;;
79064;SDS011;68469;51.502;7.462;2023-08-17T02:06:45;28.88;;;15.60;;
79064;SDS011;68469;51.502;7.462;2023-08-17T02:09:11;28.92;;;15.63;;
79064;SDS011;68469;51.502;7.462;2023-08-17T02:11:36;30.73;;;18.20;;
79064;SDS011;68469;51.502;7.462;2023-08-17T02:14:02;32.97;;;17.60;;
79064;SDS011;68469;51.502;7.462;2023-08-17T02:16:28;39.78;;;20.25;;
79064;SDS011;68469;51.502;7.462;2023-08-17T02:18:53;29.92;;;16.85;;
79064;SDS011;68469;51.502;7.462;2023-08-17T02:21:19;26.90;;;16.98;;
79064;SDS011;68469;51.502;7.462;2023-08-17T02:23:44;35.03;;;18.35;;
79064;SDS011;68469;51.502;7.462;2023-08-17T02:26:10;34.95;;;18.02;;
79064;SDS011;68469;51.502;7.462;2023-08-17T02:28:36;31.40;;;18.63;;
79064;SDS011;68469;51.502;7.462;2023-08-17T02:31:01;44.53;;;20.30;;
79064;SDS011;68469;51.502;7.462;2023-08-17T02:33:27;29.25;;;17.65;;
79064;SDS011;68469;51.502;7.462;2023-08-17T02:35:52;28.05;;;16.65;;
79064;SDS011;68469;51.502;7.462;2023-08-17T02:38:18;27.38;;;16.38;;
79064;SDS011;68469;51.502;7.462;2023-08-17T02:40:44;27.58;;;16.00;;
79064;SDS011;68469;51.502;7.462;2023-08-17T02:43:09;25.90;;;15.55;;
79064;SDS011;68469;51.502;7.462;2023-08-17T02:45:35;27.67;;;16.33;;
79064;SDS011;68469;51.502;7.462;2023-08-17T02:48:00;27.05;;;15.25;;
79064;SDS011;68469;51.502;7.462;2023-08-17T02:50:26;25.08;;;15.13;;
79064;SDS011;68469;51.502;7.462;2023-08-17T02:52:52;22.45;;;13.10;;
79064;SDS011;68469;51.502;7.462;2023-08-17T02:55:17;27.88;;;15.35;;
79064;SDS011;68469;51.502;7.462;2023-08-17T02:57:43;35.05;;;15.15;;
79064;SDS011;68469;51.502;7.462;2023-08-17T03:00:09;26.30;;;14.80;;
79064;SDS011;68469;51.502;7.462;2023-08-17T03:02:35;32.45;;;15.27;;
79064;SDS011;68469;51.502;7.462;2023-08-17T03:05:00;21.27;;;14.07;;
79064;SDS011;68469;51.502;7.462;2023-08-17T03:07:26;24.60;;;13.57;;
79064;SDS011;68469;51.502;7.462;2023-08-17T03:09:52;26.42;;;14.20;;
79064;SDS011;68469;51.502;7.462;2023-08-17T03:12:17;23.50;;;13.35;;
79064;SDS011;68469;51.502;7.462;2023-08-17T03:14:43;24.77;;;13.70;;
79064;SDS011;68469;51.502;7.462;2023-08-17T03:17:08;22.92;;;13.05;;
79064;SDS011;68469;51.502;7.462;2023-08-17T03:19:34;23.27;;;13.88;;
79064;SDS011;68469;51.502;7.462;2023-08-17T03:22:00;27.13;;;14.68;;
79064;SDS011;68469;51.502;7.462;2023-08-17T03:24:25;23.35;;;13.55;;
79064;SDS011;68469;51.502;7.462;2023-08-17T03:26:51;25.17;;;13.55;;
79064;SDS011;68469;51.502;7.462;2023-08-17T03:29:16;25.33;;;13.95;;
79064;SDS011;68469;51.502;7.462;2023-08-17T03:31:42;32.67;;;15.70;;
79064;SDS011;68469;51.502;7.462;2023-08-17T03:34:08;24.00;;;14.15;;
79064;SDS011;68469;51.502;7.462;2023-08-17T03:36:33;23.73;;;12.80;;
79064;SDS011;68469;51.502;7.462;2023-08-17T03:38:59;26.83;;;14.68;;
79064;SDS011;68469;51.502;7.462;2023-08-17T03:41:24;21.75;;;13.60;;
79064;SDS011;68469;51.502;7.462;2023-08-17T03:43:50;21.85;;;12.85;;
79064;SDS011;68469;51.502;7.462;2023-08-17T03:46:16;25.13;;;14.02;;
79064;SDS011;68469;51.502;7.462;2023-08-17T03:48:41;28.33;;;14.23;;
79064;SDS011;68469;51.502;7.462;2023-08-17T03:51:07;22.48;;;14.65;;
79064;SDS011;68469;51.502;7.462;2023-08-17T03:53:32;25.13;;;13.35;;
79064;SDS011;68469;51.502;7.462;2023-08-17T03:55:58;25.50;;;14.00;;
79064;SDS011;68469;51.502;7.462;2023-08-17T03:58:24;24.30;;;14.82;;
79064;SDS011;68469;51.502;7.462;2023-08-17T04:00:51;24.38;;;15.25;;
79064;SDS011;68469;51.502;7.462;2023-08-17T04:03:18;27.65;;;15.48;;
79064;SDS011;68469;51.502;7.462;2023-08-17T04:05:44;26.95;;;15.95;;
79064;SDS011;68469;51.502;7.462;2023-08-17T04:08:11;29.60;;;16.15;;
79064;SDS011;68469;51.502;7.462;2023-08-17T04:10:37;26.08;;;15.57;;
79064;SDS011;68469;51.502;7.462;2023-08-17T04:13:03;23.75;;;15.85;;
79064;SDS011;68469;51.502;7.462;2023-08-17T04:15:29;29.05;;;15.77;;
79064;SDS011;68469;51.502;7.462;2023-08-17T04:17:55;27.83;;;17.15;;
79064;SDS011;68469;51.502;7.462;2023-08-17T04:20:21;26.83;;;15.50;;
79064;SDS011;68469;51.502;7.462;2023-08-17T04:22:47;23.27;;;16.65;;
79064;SDS011;68469;51.502;7.462;2023-08-17T04:25:13;30.13;;;18.92;;
79064;SDS011;68469;51.502;7.462;2023-08-17T04:27:39;33.50;;;20.60;;
79064;SDS011;68469;51.502;7.462;2023-08-17T04:30:05;30.38;;;19.00;;
79064;SDS011;68469;51.502;7.462;2023-08-17T04:32:31;30.10;;;19.30;;
79064;SDS011;68469;51.502;7.462;2023-08-17T04:34:56;33.08;;;20.42;;
79064;SDS011;68469;51.502;7.462;2023-08-17T04:37:22;33.38;;;19.65;;
79064;SDS011;68469;51.502;7.462;2023-08-17T04:39:48;28.83;;;20.42;;
79064;SDS011;68469;51.502;7.462;2023-08-17T04:42:14;28.45;;;20.88;;
79064;SDS011;68469;51.502;7.462;2023-08-17T04:44:40;49.03;;;21.83;;
79064;SDS011;68469;51.502;7.462;2023-08-17T04:47:05;31.58;;;20.05;;
79064;SDS011;68469;51.502;7.462;2023-08-17T04:49:31;34.80;;;21.75;;
79064;SDS011;68469;51.502;7.462;2023-08-17T04:51:56;41.28;;;23.17;;
79064;SDS011;68469;51.502;7.462;2023-08-17T04:54:22;36.65;;;21.85;;
79064;SDS011;68469;51.502;7.462;2023-08-17T04:56:48;35.05;;;20.70;;
79064;SDS011;68469;51.502;7.462;2023-08-17T04:59:13;34.50;;;20.15;;
79064;SDS011;68469;51.502;7.462;2023-08-17T05:01:39;39.38;;;20.88;;
79064;SDS011;68469;51.502;7.462;2023-08-17T05:04:05;34.45;;;20.02;;
79064;SDS011;68469;51.502;7.462;2023-08-17T05:06:30;28.73;;;18.90;;
79064;SDS011;68469;51.502;7.462;2023-08-17T05:08:57;37.83;;;21.75;;
79064;SDS011;68469;51.502;7.462;2023-08-17T05:11:23;38.70;;;22.25;;
79064;SDS011;68469;51.502;7.462;2023-08-17T05:13:49;38.35;;;23.35;;
79064;SDS011;68469;51.502;7.462;2023-08-17T05:16:14;39.10;;;23.38;;
79064;SDS011;68469;51.502;7.462;2023-08-17T05:18:40;44.22;;;24.67;;
79064;SDS011;68469;51.502;7.462;2023-08-17T05:21:06;41.10;;;24.67;;
79064;SDS011;68469;51.502;7.462;2023-08-17T05:23:31;39.53;;;23.67;;
79064;SDS011;68469;51.502;7.462;2023-08-17T05:25:57;39.75;;;22.35;;
79064;SDS011;68469;51.502;7.462;2023-08-17T05:28:22;31.10;;;22.85;;
79064;SDS011;68469;51.502;7.462;2023-08-17T05:30:48;38.38;;;24.08;;
79064;SDS011;68469;51.502;7.462;2023-08-17T05:33:14;36.25;;;23.02;;
79064;SDS011;68469;51.502;7.462;2023-08-17T05:35:40;38.22;;;22.08;;
79064;SDS011;68469;51.502;7.462;2023-08-17T05:38:07;37.92;;;23.90;;
79064;SDS011;68469;51.502;7.462;2023-08-17T05:40:34;45.38;;;26.50;;
79064;SDS011;68469;51.502;7.462;2023-08-17T05:43:00;52.33;;;27.10;;
79064;SDS011;68469;51.502;7.462;2023-08-17T05:45:26;44.38;;;26.33;;
79064;SDS011;68469;51.502;7.462;2023-08-17T05:47:51;38.80;;;25.80;;
79064;SDS011;68469;51.502;7.462;2023-08-17T05:50:17;36.00;;;24.17;;
79064;SDS011;68469;51.502;7.462;2023-08-17T05:52:43;55.33;;;29.27;;
79064;SDS011;68469;51.502;7.462;2023-08-17T05:55:09;50.10;;;28.70;;
79064;SDS011;68469;51.502;7.462;2023-08-17T05:57:34;58.88;;;31.67;;
79064;SDS011;68469;51.502;7.462;2023-08-17T06:00:00;49.70;;;29.90;;
79064;SDS011;68469;51.502;7.462;2023-08-17T06:02:25;54.28;;;28.50;;
79064;SDS011;68469;51.502;7.462;2023-08-17T06:04:51;44.88;;;29.85;;
79064;SDS011;68469;51.502;7.462;2023-08-17T06:07:17;53.28;;;31.13;;
79064;SDS011;68469;51.502;7.462;2023-08-17T06:09:42;52.53;;;29.73;;
79064;SDS011;68469;51.502;7.462;2023-08-17T06:12:08;54.35;;;31.17;;
79064;SDS011;68469;51.502;7.462;2023-08-17T06:14:33;44.92;;;28.40;;
79064;SDS011;68469;51.502;7.462;2023-08-17T06:16:59;51.03;;;30.02;;
79064;SDS011;68469;51.502;7.462;2023-08-17T06:19:25;53.88;;;29.85;;
79064;SDS011;68469;51.502;7.462;2023-08-17T06:21:51;53.53;;;29.58;;
79064;SDS011;68469;51.502;7.462;2023-08-17T06:24:17;49.58;;;26.05;;
79064;SDS011;68469;51.502;7.462;2023-08-17T06:26:43;43.20;;;26.08;;
79064;SDS011;68469;51.502;7.462;2023-08-17T06:29:09;55.45;;;28.55;;
79064;SDS011;68469;51.502;7.462;2023-08-17T06:31:35;44.70;;;27.95;;
79064;SDS011;68469;51.502;7.462;2023-08-17T06:34:00;51.10;;;27.25;;
79064;SDS011;68469;51.502;7.462;2023-08-17T06:36:31;46.40;;;25.38;;
79064;SDS011;68469;51.502;7.462;2023-08-17T06:39:00;48.83;;;24.95;;
79064;SDS011;68469;51.502;7.462;2023-08-17T06:41:25;46.22;;;24.45;;
79064;SDS011;68469;51.502;7.462;2023-08-17T06:43:51;46.15;;;26.05;;
79064;SDS011;68469;51.502;7.462;2023-08-17T06:46:17;37.38;;;22.40;;
79064;SDS011;68469;51.502;7.462;2023-08-17T06:48:43;34.72;;;20.88;;
79064;SDS011;68469;51.502;7.462;2023-08-17T06:51:09;36.42;;;20.75;;
79064;SDS011;68469;51.502;7.462;2023-08-17T06:53:34;44.13;;;23.52;;
79064;SDS011;68469;51.502;7.462;2023-08-17T06:56:00;34.20;;;21.92;;
79064;SDS011;68469;51.502;7.462;2023-08-17T06:58:26;34.67;;;20.40;;
79064;SDS011;68469;51.502;7.462;2023-08-17T07:00:51;27.50;;;21.25;;
79064;SDS011;68469;51.502;7.462;2023-08-17T07:03:17;36.17;;;20.27;;
79064;SDS011;68469;51.502;7.462;2023-08-17T07:05:43;38.83;;;21.58;;
79064;SDS011;68469;51.502;7.462;2023-08-17T07:08:08;40.20;;;22.55;;
79064;SDS011;68469;51.502;7.462;2023-08-17T07:10:34;33.78;;;19.60;;
79064;SDS011;68469;51.502;7.462;2023-08-17T07:13:00;36.22;;;22.73;;
79064;SDS011;68469;51.502;7.462;2023-08-17T07:15:28;39.58;;;21.63;;
79064;SDS011;68469;51.502;7.462;2023-08-17T07:17:55;33.80;;;20.75;;
79064;SDS011;68469;51.502;7.462;2023-08-17T07:20:20;40.38;;;22.38;;
79064;SDS011;68469;51.502;7.462;2023-08-17T07:22:46;35.15;;;20.65;;
79064;SDS011;68469;51.502;7.462;2023-08-17T07:25:12;47.47;;;23.20;;
79064;SDS011;68469;51.502;7.462;2023-08-17T07:27:38;36.35;;;23.05;;
79064;SDS011;68469;51.502;7.462;2023-08-17T07:30:04;38.30;;;23.00;;
79064;SDS011;68469;51.502;7.462;2023-08-17T07:32:30;42.17;;;23.08;;
79064;SDS011;68469;51.502;7.462;2023-08-17T07:34:55;45.92;;;24.85;;
79064;SDS011;68469;51.502;7.462;2023-08-17T07:37:21;35.25;;;22.95;;
79064;SDS011;68469;51.502;7.462;2023-08-17T07:39:47;42.67;;;22.60;;
79064;SDS011;68469;51.502;7.462;2023-08-17T07:42:12;41.88;;;24.17;;
79064;SDS011;68469;51.502;7.462;2023-08-17T07:44:38;43.78;;;25.98;;
79064;SDS011;68469;51.502;7.462;2023-08-17T07:47:04;46.30;;;25.42;;
79064;SDS011;68469;51.502;7.462;2023-08-17T07:49:30;47.35;;;25.65;;
79064;SDS011;68469;51.502;7.462;2023-08-17T07:51:56;37.25;;;24.60;;
79064;SDS011;68469;51.502;7.462;2023-08-17T07:54:22;41.67;;;24.55;;
79064;SDS011;68469;51.502;7.462;2023-08-17T07:56:47;36.67;;;22.90;;
79064;SDS011;68469;51.502;7.462;2023-08-17T07:59:13;37.17;;;22.95;;
79064;SDS011;68469;51.502;7.462;2023-08-17T08:01:39;36.38;;;23.70;;
79064;SDS011;68469;51.502;7.462;2023-08-17T08:04:05;38.75;;;24.20;;
79064;SDS011;68469;51.502;7.462;2023-08-17T08:06:31;37.60;;;23.92;;
79064;SDS011;68469;51.502;7.462;2023-08-17T08:08:57;45.53;;;27.10;;
79064;SDS011;68469;51.502;7.462;2023-08-17T08:11:23;43.55;;;26.52;;
79064;SDS011;68469;51.502;7.462;2023-08-17T08:13:48;34.50;;;24.88;;
79064;SDS011;68469;51.502;7.462;2023-08-17T08:16:14;37.60;;;24.92;;
79064;SDS011;68469;51.502;7.462;2023-08-17T08:18:40;35.72;;;23.25;;
79064;SDS011;68469;51.502;7.462;2023-08-17T08:21:05;36.15;;;24.27;;
79064;SDS011;68469;51.502;7.462;2023-08-17T08:23:31;35.17;;;23.40;;
79064;SDS011;68469;51.502;7.462;2023-08-17T08:25:56;40.08;;;24.98;;
79064;SDS011;68469;51.502;7.462;2023-08-17T08:28:23;37.00;;;23.35;;
79064;SDS011;68469;51.502;7.462;2023-08-17T08:30:49;32.22;;;22.90;;
79064;SDS011;68469;51.502;7.462;2023-08-17T08:33:14;37.20;;;25.15;;
79064;SDS011;68469;51.502;7.462;2023-08-17T08:35:40;36.75;;;22.92;;
79064;SDS011;68469;51.502;7.462;2023-08-17T08:38:06;38.30;;;24.85;;
79064;SDS011;68469;51.502;7.462;2023-08-17T08:40:31;43.88;;;26.27;;
79064;SDS011;68469;51.502;7.462;2023-08-17T08:42:57;42.00;;;26.67;;
79064;SDS011;68469;51.502;7.462;2023-08-17T08:45:24;32.13;;;23.40;;
79064;SDS011;68469;51.502;7.462;2023-08-17T08:47:52;36.47;;;22.50;;
79064;SDS011;68469;51.502;7.462;2023-08-17T08:50:20;30.90;;;21.13;;
79064;SDS011;68469;51.502;7.462;2023-08-17T08:53:01;34.13;;;23.27;;
79064;SDS011;68469;51.502;7.462;2023-08-17T08:55:29;31.42;;;22.48;;
79064;SDS011;68469;51.502;7.462;2023-08-17T08:58:01;31.60;;;22.23;;
79064;SDS011;68469;51.502;7.462;2023-08-17T09:00:29;33.97;;;22.25;;
79064;SDS011;68469;51.502;7.462;2023-08-17T09:02:55;31.08;;;21.20;;
79064;SDS011;68469;51.502;7.462;2023-08-17T09:05:21;30.10;;;21.75;;
79064;SDS011;68469;51.502;7.462;2023-08-17T09:07:48;32.58;;;20.90;;
79064;SDS011;68469;51.502;7.462;2023-08-17T09:10:14;31.20;;;22.65;;
79064;SDS011;68469;51.502;7.462;2023-08-17T09:12:41;31.58;;;21.27;;
79064;SDS011;68469;51.502;7.462;2023-08-17T09:15:08;31.85;;;21.75;;
79064;SDS011;68469;51.502;7.462;2023-08-17T09:17:34;33.10;;;21.38;;
79064;SDS011;68469;51.502;7.462;2023-08-17T09:20:00;49.55;;;23.30;;
79064;SDS011;68469;51.502;7.462;2023-08-17T09:22:39;37.08;;;23.80;;
79064;SDS011;68469;51.502;7.462;2023-08-17T09:25:06;43.58;;;24.40;;
79064;SDS011;68469;51.502;7.462;2023-08-17T09:27:33;38.05;;;24.15;;
79064;SDS011;68469;51.502;7.462;2023-08-17T09:30:05;42.47;;;24.10;;
79064;SDS011;68469;51.502;7.462;2023-08-17T09:32:32;41.22;;;24.45;;
79064;SDS011;68469;51.502;7.462;2023-08-17T09:35:02;33.35;;;21.52;;
79064;SDS011;68469;51.502;7.462;2023-08-17T09:37:29;29.60;;;19.27;;
79064;SDS011;68469;51.502;7.462;2023-08-17T09:39:55;24.42;;;18.30;;
79064;SDS011;68469;51.502;7.462;2023-08-17T09:42:21;24.08;;;17.63;;
79064;SDS011;68469;51.502;7.462;2023-08-17T09:44:47;28.17;;;18.25;;
79064;SDS011;68469;51.502;7.462;2023-08-17T09:47:14;25.05;;;18.13;;
79064;SDS011;68469;51.502;7.462;2023-08-17T09:49:40;32.25;;;22.90;;
79064;SDS011;68469;51.502;7.462;2023-08-17T09:52:06;28.02;;;20.17;;
79064;SDS011;68469;51.502;7.462;2023-08-17T09:54:32;30.35;;;19.42;;
79064;SDS011;68469;51.502;7.462;2023-08-17T09:56:58;30.77;;;20.10;;
79064;SDS011;68469;51.502;7.462;2023-08-17T09:59:23;38.58;;;22.90;;
79064;SDS011;68469;51.502;7.462;2023-08-17T10:01:50;32.95;;;22.58;;
79064;SDS011;68469;51.502;7.462;2023-08-17T10:04:20;30.73;;;19.58;;
79064;SDS011;68469;51.502;7.462;2023-08-17T10:06:56;27.90;;;18.98;;
79064;SDS011;68469;51.502;7.462;2023-08-17T10:09:25;31.63;;;18.45;;
79064;SDS011;68469;51.502;7.462;2023-08-17T10:11:57;24.90;;;17.88;;
79064;SDS011;68469;51.502;7.462;2023-08-17T10:14:32;25.58;;;17.83;;
79064;SDS011;68469;51.502;7.462;2023-08-17T10:17:07;21.10;;;16.77;;
79064;SDS011;68469;51.502;7.462;2023-08-17T10:19:43;19.80;;;14.35;;
79064;SDS011;68469;51.502;7.462;2023-08-17T10:22:18;17.90;;;12.40;;
79064;SDS011;68469;51.502;7.462;2023-08-17T10:24:51;16.50;;;13.35;;
79064;SDS011;68469;51.502;7.462;2023-08-17T10:27:20;15.27;;;11.77;;
79064;SDS011;68469;51.502;7.462;2023-08-17T10:29:46;14.57;;;11.52;;
79064;SDS011;68469;51.502;7.462;2023-08-17T10:32:12;18.38;;;12.73;;
79064;SDS011;68469;51.502;7.462;2023-08-17T10:34:39;17.63;;;13.32;;
79064;SDS011;68469;51.502;7.462;2023-08-17T10:37:06;16.77;;;12.77;;
79064;SDS011;68469;51.502;7.462;2023-08-17T10:39:32;14.98;;;10.88;;
79064;SDS011;68469;51.502;7.462;2023-08-17T10:41:59;15.27;;;10.40;;
79064;SDS011;68469;51.502;7.462;2023-08-17T10:44:44;13.13;;;11.23;;
79064;SDS011;68469;51.502;7.462;2023-08-17T10:47:18;17.35;;;11.70;;
79064;SDS011;68469;51.502;7.462;2023-08-17T10:52:49;15.52;;;11.50;;
79064;SDS011;68469;51.502;7.462;2023-08-17T10:55:15;15.70;;;12.38;;
79064;SDS011;68469;51.502;7.462;2023-08-17T10:57:42;16.23;;;13.20;;
79064;SDS011;68469;51.502;7.462;2023-08-17T11:11:03;20.05;;;15.88;;
79064;SDS011;68469;51.502;7.462;2023-08-17T11:13:32;23.25;;;17.25;;
79064;SDS011;68469;51.502;7.462;2023-08-17T11:16:01;22.00;;;16.90;;
79064;SDS011;68469;51.502;7.462;2023-08-17T11:18:28;25.25;;;17.23;;
79064;SDS011;68469;51.502;7.462;2023-08-17T11:20:55;23.63;;;19.83;;
79064;SDS011;68469;51.502;7.462;2023-08-17T11:23:22;28.17;;;19.63;;
79064;SDS011;68469;51.502;7.462;2023-08-17T11:25:49;32.88;;;27.17;;
79064;SDS011;68469;51.502;7.462;2023-08-17T11:28:17;29.98;;;23.45;;
79064;SDS011;68469;51.502;7.462;2023-08-17T11:30:42;31.90;;;27.27;;
79064;SDS011;68469;51.502;7.462;2023-08-17T11:33:08;32.20;;;25.42;;
79064;SDS011;68469;51.502;7.462;2023-08-17T11:35:35;28.25;;;21.63;;
79064;SDS011;68469;51.502;7.462;2023-08-17T11:38:01;28.38;;;22.20;;
79064;SDS011;68469;51.502;7.462;2023-08-17T11:40:28;30.60;;;21.58;;
79064;SDS011;68469;51.502;7.462;2023-08-17T11:42:54;22.73;;;20.10;;
79064;SDS011;68469;51.502;7.462;2023-08-17T11:45:20;30.15;;;22.08;;
79064;SDS011;68469;51.502;7.462;2023-08-17T11:47:46;27.67;;;20.50;;
79064;SDS011;68469;51.502;7.462;2023-08-17T11:50:14;26.73;;;19.75;;
79064;SDS011;68469;51.502;7.462;2023-08-17T11:52:40;24.17;;;18.33;;
79064;SDS011;68469;51.502;7.462;2023-08-17T11:55:06;24.23;;;17.58;;
79064;SDS011;68469;51.502;7.462;2023-08-17T11:57:34;24.38;;;18.42;;
79064;SDS011;68469;51.502;7.462;2023-08-17T12:00:01;22.75;;;17.95;;
79064;SDS011;68469;51.502;7.462;2023-08-17T12:02:28;21.30;;;17.13;;
79064;SDS011;68469;51.502;7.462;2023-08-17T12:04:55;26.40;;;18.35;;
79064;SDS011;68469;51.502;7.462;2023-08-17T12:07:23;22.55;;;17.48;;
79064;SDS011;68469;51.502;7.462;2023-08-17T12:09:49;17.70;;;15.18;;
79064;SDS011;68469;51.502;7.462;2023-08-17T12:12:19;15.77;;;14.18;;
79064;SDS011;68469;51.502;7.462;2023-08-17T12:14:47;17.50;;;13.57;;
79064;SDS011;68469;51.502;7.462;2023-08-17T12:17:17;17.33;;;13.52;;
79064;SDS011;68469;51.502;7.462;2023-08-17T12:19:43;16.08;;;14.25;;
79064;SDS011;68469;51.502;7.462;2023-08-17T12:22:10;15.90;;;13.25;;
79064;SDS011;68469;51.502;7.462;2023-08-17T12:24:37;15.32;;;12.23;;
79064;SDS011;68469;51.502;7.462;2023-08-17T12:27:04;12.93;;;11.05;;
79064;SDS011;68469;51.502;7.462;2023-08-17T12:29:30;14.27;;;11.88;;
79064;SDS011;68469;51.502;7.462;2023-08-17T12:31:56;13.95;;;11.80;;
79064;SDS011;68469;51.502;7.462;2023-08-17T12:34:23;11.63;;;10.38;;
79064;SDS011;68469;51.502;7.462;2023-08-17T12:36:48;14.32;;;11.65;;
79064;SDS011;68469;51.502;7.462;2023-08-17T12:39:14;14.68;;;11.73;;
79064;SDS011;68469;51.502;7.462;2023-08-17T12:41:40;15.98;;;13.13;;
79064;SDS011;68469;51.502;7.462;2023-08-17T12:44:06;15.85;;;12.18;;
79064;SDS011;68469;51.502;7.462;2023-08-17T12:46:34;20.45;;;12.57;;
79064;SDS011;68469;51.502;7.462;2023-08-17T12:49:00;15.57;;;11.88;;
79064;SDS011;68469;51.502;7.462;2023-08-17T12:51:25;12.35;;;11.05;;
79064;SDS011;68469;51.502;7.462;2023-08-17T12:53:51;13.70;;;12.13;;
79064;SDS011;68469;51.502;7.462;2023-08-17T12:56:17;22.08;;;16.02;;
79064;SDS011;68469;51.502;7.462;2023-08-17T12:58:42;18.50;;;15.02;;
79064;SDS011;68469;51.502;7.462;2023-08-17T13:01:08;18.63;;;15.40;;
79064;SDS011;68469;51.502;7.462;2023-08-17T13:03:34;17.33;;;15.38;;
79064;SDS011;68469;51.502;7.462;2023-08-17T13:05:59;22.30;;;16.38;;
79064;SDS011;68469;51.502;7.462;2023-08-17T13:08:25;20.52;;;15.40;;
79064;SDS011;68469;51.502;7.462;2023-08-17T13:10:51;25.15;;;17.55;;
79064;SDS011;68469;51.502;7.462;2023-08-17T13:13:16;19.08;;;15.85;;
79064;SDS011;68469;51.502;7.462;2023-08-17T13:15:42;18.50;;;16.50;;
79064;SDS011;68469;51.502;7.462;2023-08-17T13:18:08;22.33;;;17.27;;
79064;SDS011;68469;51.502;7.462;2023-08-17T13:20:33;22.27;;;17.00;;
79064;SDS011;68469;51.502;7.462;2023-08-17T13:22:59;18.48;;;15.52;;
79064;SDS011;68469;51.502;7.462;2023-08-17T13:25:25;18.00;;;15.00;;
79064;SDS011;68469;51.502;7.462;2023-08-17T13:27:50;17.60;;;15.68;;
79064;SDS011;68469;51.502;7.462;2023-08-17T13:30:16;18.80;;;15.13;;
79064;SDS011;68469;51.502;7.462;2023-08-17T13:32:41;20.73;;;15.13;;
79064;SDS011;68469;51.502;7.462;2023-08-17T13:35:07;17.45;;;14.25;;
79064;SDS011;68469;51.502;7.462;2023-08-17T13:37:36;17.35;;;14.52;;
79064;SDS011;68469;51.502;7.462;2023-08-17T13:40:02;17.38;;;15.00;;
79064;SDS011;68469;51.502;7.462;2023-08-17T13:42:28;18.25;;;13.63;;
79064;SDS011;68469;51.502;7.462;2023-08-17T13:44:54;17.38;;;14.15;;
79064;SDS011;68469;51.502;7.462;2023-08-17T13:47:19;15.07;;;12.40;;
79064;SDS011;68469;51.502;7.462;2023-08-17T13:49:45;15.80;;;14.18;;
79064;SDS011;68469;51.502;7.462;2023-08-17T13:52:11;17.48;;;14.63;;
79064;SDS011;68469;51.502;7.462;2023-08-17T13:54:36;15.90;;;13.77;;
79064;SDS011;68469;51.502;7.462;2023-08-17T13:57:02;15.70;;;14.07;;
79064;SDS011;68469;51.502;7.462;2023-08-17T13:59:27;15.93;;;13.07;;
79064;SDS011;68469;51.502;7.462;2023-08-17T14:01:55;16.67;;;13.05;;
79064;SDS011;68469;51.502;7.462;2023-08-17T14:04:21;18.67;;;15.50;;
79064;SDS011;68469;51.502;7.462;2023-08-17T14:06:46;20.70;;;15.32;;
79064;SDS011;68469;51.502;7.462;2023-08-17T14:09:13;18.63;;;14.98;;
79064;SDS011;68469;51.502;7.462;2023-08-17T14:11:38;17.48;;;13.75;;
79064;SDS011;68469;51.502;7.462;2023-08-17T14:14:04;18.70;;;14.52;;
79064;SDS011;68469;51.502;7.462;2023-08-17T14:16:30;16.20;;;14.55;;
79064;SDS011;68469;51.502;7.462;2023-08-17T14:18:56;21.05;;;15.43;;
79064;SDS011;68469;51.502;7.462;2023-08-17T14:21:21;18.77;;;14.77;;
79064;SDS011;68469;51.502;7.462;2023-08-17T14:23:47;17.48;;;14.15;;
79064;SDS011;68469;51.502;7.462;2023-08-17T14:26:14;19.75;;;14.57;;
79064;SDS011;68469;51.502;7.462;2023-08-17T14:28:40;18.73;;;16.45;;
79064;SDS011;68469;51.502;7.462;2023-08-17T14:31:05;20.63;;;16.23;;
79064;SDS011;68469;51.502;7.462;2023-08-17T14:33:31;17.13;;;14.98;;
79064;SDS011;68469;51.502;7.462;2023-08-17T14:35:57;19.40;;;15.10;;